Airfield :
LOGIN :

Register | Disclaimer

   EN    FR    IT 

 










Legend :    VFR   Marginal VFR   IFR   Intensive IFR   Very Intensive IFR
Visi :
Ceiling :
>= 8 km
>= 3000ft
5 to 8 km
1000 to 3000 ft
1500m to 5 km
500 to 1000 ft
800 to 1500m
200 to 500 ft
< 800m
< 200 ft
Symbols :   Thunderstorms  Fog  Heavy snow  Heavy precipitations  Wind > 20 kt
SIGMETs :     Misc.  Thunderstorms  Icing  Turbulence  Mountain Waves  Volcanic Ashes






- Airport Elevation : 297 ft
- IATA code : BBU


LRBS - Bucarest - Baneasa Aurel Vlaicu

CURRENT METAR :
  • 151730Z 27002KT CAVOK 08/06 Q1021 NOSIG

EXPIRED METARs :
  • 151700Z 27002KT CAVOK 08/06 Q1021 NOSIG
  • 151630Z 24005KT 210V270 CAVOK 09/06 Q1020 NOSIG
  • 151600Z 23004KT CAVOK 09/06 Q1020 NOSIG
  • 151530Z 26003KT CAVOK 10/05 Q1020 NOSIG
  • 151500Z 22004KT CAVOK 10/05 Q1020 NOSIG

TAF TAF LRBS
Valid from the 15 at 18:00 until the 16 at 18:00 UTC


151700Z 1518/1618 24007KT CAVOK
TEMPO 1602/1605 3000 BR



MET'MAP, your aeronautical weather chart ! - Copyright ORBIFLY December 2007 - Disclaimer

ORBIFLY MET'MAP TEAM :

Programming & Development : Alexandra Zaïnal
Concept & original design : Baudouin d'Aumeries
Assistance for programming : Marc-Olivier Méhu
Technical & hardware support : Manuel Goepfert

Contact : metmap@orbifly.com




SOURCES & CREDITS :

   NOAA